Kerken UL

DE-0200 · Renania del Norte-Westfalia, Alemania

6 de octubre de 2022

Hora Código Tiempo Temp. Visibilidad Cielo nuboso Viento METAR/SPECI
04:50
V
12 °C 10 km+ 23.000 ft 240° 240° 4 kt METAR EDLN 060250Z AUTO 24004KT 210V290 9999 // BKN230/// 12/10 Q1024
04:20
V
12 °C 10 km+ - Var Var 4 kt METAR EDLN 060220Z AUTO VRB04KT 9999 // SCT031/// 12/11 Q1024
03:50
V
12 °C 10 km+ - 230° 230° 3 kt METAR EDLN 060150Z AUTO 23003KT 200V270 9999 // FEW027/// SCT031/// 12/11 Q1024
03:20
V
13 °C 10 km+ - 250° 250° 3 kt METAR EDLN 060120Z AUTO 25003KT 190V310 9999 // SCT026/// SCT030/// 13/11 Q1023
02:50
V
12 °C 10 km+ - Var Var 2 kt METAR EDLN 060050Z AUTO VRB02KT 9999 // FEW029/// 12/11 Q1023
02:20
V
12 °C 10 km+ 6.500 ft 240° 240° 3 kt METAR EDLN 060020Z AUTO 24003KT 210V280 9999 // FEW027/// BKN065/// 12/11 Q1022
01:50
V
13 °C 10 km+ 3.700 ft 250° 250° 4 kt METAR EDLN 052350Z AUTO 25004KT 200V300 9999 // FEW017/// BKN037/// OVC052/// 13/11 Q1022
01:20
M
13 °C 5 km 2.500 ft 280° 280° 11 - 21 kt METAR EDLN 052320Z AUTO 28011G21KT 240V300 5000 // SCT015/// BKN025/// OVC035/// 13/11 Q1022
00:50
V
16 °C 10 km+ 4.500 ft 240° 240° 7 kt METAR EDLN 052250Z AUTO 24007KT 200V270 9999 // FEW027/// BKN045/// OVC056/// 16/13 Q1020
00:20
V
16 °C 10 km+ 5.200 ft 240° 240° 7 kt METAR EDLN 052220Z AUTO 24007KT 200V290 9999 // SCT044/// OVC052/// 16/13 Q1020

5 de octubre de 2022

Hora Código Tiempo Temp. Visibilidad Cielo nuboso Viento METAR/SPECI
23:50
M
16 °C 10 km+ 2.500 ft 240° 240° 9 kt METAR EDLN 052150Z AUTO 24009KT 200V280 9999 // FEW020/// BKN025/// OVC038/// 16/13 Q1019
23:20
V
18 °C 10 km+ 3.000 ft 220° 220° 11 - 23 kt METAR EDLN 052120Z AUTO 22011G23KT 170V270 9999 // OVC030/// 18/13 Q1018
22:50
V
18 °C 10 km+ 4.600 ft 210° 210° 11 kt METAR EDLN 052050Z AUTO 21011KT 170V250 9999 // FEW036/// BKN046/// 18/13 Q1018
22:20
V
18 °C 10 km+ 8.000 ft 210° 210° 10 kt METAR EDLN 052020Z AUTO 21010KT 150V250 9999 // SCT045/// BKN080/// 18/12 Q1017
21:50
V
18 °C 10 km+ 7.700 ft 210° 210° 9 kt METAR EDLN 051950Z AUTO 21009KT 180V260 9999 // FEW041/// BKN077/// 18/12 Q1017
21:20
V
18 °C 10 km+ 7.300 ft 210° 210° 8 kt METAR EDLN 051920Z AUTO 21008KT 170V240 9999 // FEW040/// BKN073/// 18/12 Q1017
20:50
V
18 °C 10 km+ 7.100 ft 200° 200° 9 kt METAR EDLN 051850Z AUTO 20009KT 170V250 9999 // SCT038/// BKN071/// 18/11 Q1017
20:20
V
18 °C 10 km+ 3.900 ft 210° 210° 6 kt METAR EDLN 051820Z 21006KT 170V260 9999 BKN039 18/12 Q1017
19:50
V
18 °C 10 km+ 4.000 ft 220° 220° 6 kt METAR EDLN 051750Z 22006KT 160V250 9999 BKN040 18/12 Q1017
19:20
V
18 °C 10 km+ 3.800 ft 240° 240° 8 kt METAR EDLN 051720Z 24008KT 200V310 9999 BKN038 18/11 Q1016
18:50
V
19 °C 10 km+ 3.600 ft 260° 260° 7 kt METAR EDLN 051650Z 26007KT 210V310 9999 BKN036 19/12 Q1016
18:20
V
20 °C 10 km+ 4.200 ft 240° 240° 9 - 19 kt METAR EDLN 051620Z 24009G19KT 200V280 9999 BKN042 20/12 Q1015
17:50
V
20 °C 10 km+ 4.500 ft 240° 240° 11 - 23 kt METAR EDLN 051550Z 24011G23KT 200V300 9999 BKN045 20/12 Q1014
17:20
V
21 °C 10 km+ - 220° 220° 10 kt METAR EDLN 051520Z 22010KT 190V260 9999 SCT045 21/13 Q1014
16:50
V
22 °C 10 km+ - 210° 210° 9 - 20 kt METAR EDLN 051450Z 21009G20KT 180V240 9999 FEW047 22/13 Q1014
16:20
V
22 °C 10 km+ - 200° 200° 9 - 20 kt METAR EDLN 051420Z 20009G20KT 160V230 CAVOK 22/12 Q1014
15:50
V
21 °C 10 km+ - 190° 190° 15 kt METAR EDLN 051350Z 19015KT 120V230 CAVOK 21/12 Q1014
15:20
V
21 °C 10 km+ - 180° 180° 10 kt METAR EDLN 051320Z 18010KT CAVOK 21/13 Q1014
14:50
V
21 °C 10 km+ - 190° 190° 10 kt METAR EDLN 051250Z 19010KT 140V220 CAVOK 21/13 Q1014
14:20
V
20 °C 10 km+ - 190° 190° 9 kt METAR EDLN 051220Z 19009KT 150V220 9999 FEW035 20/13 Q1015
13:50
V
19 °C 10 km+ - 190° 190° 12 kt METAR EDLN 051150Z 19012KT 150V220 9999 SCT034 19/12 Q1015
13:20
V
19 °C 10 km+ - 190° 190° 10 kt METAR EDLN 051120Z 19010KT 130V230 9999 SCT036 19/12 Q1016
12:50
V
18 °C 10 km+ 3.600 ft 190° 190° 10 kt METAR EDLN 051050Z 19010KT 170V230 9999 OVC036 18/12 Q1016
12:20
V
17 °C 10 km+ 3.600 ft 200° 200° 9 kt METAR EDLN 051020Z 20009KT 160V250 9999 OVC036 17/12 Q1017
11:50
V
17 °C 10 km+ 3.600 ft 190° 190° 8 kt METAR EDLN 050950Z 19008KT 130V240 9999 OVC036 17/12 Q1017
11:20
V
16 °C 10 km+ 3.700 ft 170° 170° 5 kt METAR EDLN 050920Z 17005KT 120V210 9999 OVC037 16/12 Q1017
10:50
V
14 °C 10 km+ 3.700 ft 150° 150° 5 kt METAR EDLN 050850Z 15005KT 100V180 9999 OVC037 14/12 Q1017
10:20
V
14 °C 10 km+ 3.600 ft 150° 150° 5 kt METAR EDLN 050820Z 15005KT 120V190 9999 OVC036 14/11 Q1017
09:50
V
13 °C 10 km+ 3.200 ft 160° 160° 6 kt METAR EDLN 050750Z 16006KT 110V200 9999 OVC032 13/11 Q1017
09:20
V
13 °C 10 km+ 3.000 ft 160° 160° 6 kt METAR EDLN 050720Z 16006KT 130V200 9999 OVC030 13/11 Q1017
08:50
V
13 °C 10 km+ 3.000 ft 160° 160° 5 kt METAR EDLN 050650Z 16005KT 130V190 9999 OVC030 13/11 Q1017
08:20
V
12 °C 10 km+ 3.200 ft 160° 160° 4 kt METAR EDLN 050620Z 16004KT 100V190 9999 OVC032 12/10 Q1017
07:50
V
12 °C 10 km+ 3.300 ft 160° 160° 4 kt METAR EDLN 050550Z 16004KT 120V180 9999 OVC033 12/11 Q1017
07:20
V
12 °C 10 km+ 3.400 ft 160° 160° 4 kt METAR EDLN 050520Z AUTO 16004KT 120V190 9999 // OVC034/// 12/11 Q1017
06:50
V
12 °C 10 km+ 3.400 ft 150° 150° 5 kt METAR EDLN 050450Z AUTO 15005KT 9999 // BKN034/// 12/10 Q1017
06:20
V
12 °C 10 km+ 3.500 ft 160° 160° 4 kt METAR EDLN 050420Z AUTO 16004KT 130V190 9999 // OVC035/// 12/11 Q1017
05:50
V
12 °C 10 km+ 3.400 ft 160° 160° 4 kt METAR EDLN 050350Z AUTO 16004KT 110V190 9999 // OVC034/// 12/11 Q1017
05:20
V
12 °C 10 km+ 3.500 ft 160° 160° 4 kt METAR EDLN 050320Z AUTO 16004KT 130V190 9999 // OVC035/// 12/11 Q1017
04:50
V
12 °C 10 km+ 3.600 ft 160° 160° 4 kt METAR EDLN 050250Z AUTO 16004KT 9999 // OVC036/// 12/10 Q1018
04:20
V
11 °C 10 km+ - 160° 160° 3 kt METAR EDLN 050220Z AUTO 16003KT 9999 // SCT035/// 11/10 Q1018
03:50
V
10 °C 10 km+ - 160° 160° 3 kt METAR EDLN 050150Z AUTO 16003KT 140V200 9999 // FEW035/// 10/09 Q1018
03:20
V
10 °C 10 km+ - 170° 170° 3 kt METAR EDLN 050120Z AUTO 17003KT 9999 // SCT036/// 10/09 Q1018
02:50
V
10 °C 10 km+ 22.000 ft 160° 160° 3 kt METAR EDLN 050050Z AUTO 16003KT 9999 // BKN220/// 10/09 Q1018
02:20
V
10 °C 10 km+ - 170° 170° 3 kt METAR EDLN 050020Z AUTO 17003KT 9999 // NCD 10/09 Q1018
01:50
V
10 °C 10 km+ - 170° 170° 3 kt METAR EDLN 042350Z AUTO 17003KT 140V200 9999 // NCD 10/09 Q1019
01:20
V
10 °C 10 km+ - 180° 180° 3 kt METAR EDLN 042320Z AUTO 18003KT 9999 // NCD 10/09 Q1019
00:50
V
11 °C 10 km+ - 190° 190° 3 kt METAR EDLN 042250Z AUTO 19003KT 9999 // NCD 11/09 Q1019
00:20
V
11 °C 10 km+ - 180° 180° 3 kt METAR EDLN 042220Z AUTO 18003KT 9999 // NCD 11/10 Q1019

4 de octubre de 2022

Hora Código Tiempo Temp. Visibilidad Cielo nuboso Viento METAR/SPECI
23:50
V
11 °C 10 km+ - 180° 180° 4 kt METAR EDLN 042150Z AUTO 18004KT 150V210 9999 // NCD 11/10 Q1019
23:20
V
10 °C 10 km+ - 180° 180° 3 kt METAR EDLN 042120Z AUTO 18003KT 9999 // NCD 10/09 Q1019
22:50
V
11 °C 10 km+ - 180° 180° 3 kt METAR EDLN 042050Z AUTO 18003KT 160V220 9999 // NCD 11/10 Q1019
22:20
V
10 °C 10 km+ - 190° 190° 3 kt METAR EDLN 042020Z AUTO 19003KT 150V210 9999 // NCD 10/10 Q1019
21:50
V
11 °C 10 km+ - Var 000° 0 kt METAR EDLN 041950Z AUTO 00000KT 9999 // SCT250/// 11/10 Q1019
21:20
V
11 °C 10 km+ - 120° 120° 2 kt METAR EDLN 041920Z AUTO 12002KT 9999 // NCD 11/10 Q1019
20:50
V
12 °C 10 km+ - Var Var 1 kt METAR EDLN 041850Z AUTO VRB01KT 9999 // NCD 12/10 Q1020
20:20
V
13 °C 10 km+ - 260° 260° 3 kt METAR EDLN 041820Z 26003KT 220V290 CAVOK 13/11 Q1019
19:50
V
12 °C 10 km+ - 290° 290° 3 kt METAR EDLN 041750Z 29003KT CAVOK 12/10 Q1019
19:20
V
13 °C 10 km+ - Var 000° 0 kt METAR EDLN 041720Z 00000KT CAVOK 13/11 Q1019
18:50
V
15 °C 10 km+ - Var 000° 0 kt METAR EDLN 041650Z 00000KT CAVOK 15/11 Q1019
18:20
V
17 °C 10 km+ - 190° 190° 3 kt METAR EDLN 041620Z 19003KT 160V220 CAVOK 17/11 Q1019
17:50
V
19 °C 10 km+ - 220° 220° 3 kt METAR EDLN 041550Z 22003KT 170V270 CAVOK 19/10 Q1019
17:20
V
19 °C 10 km+ - 180° 180° 4 kt METAR EDLN 041520Z 18004KT 120V220 CAVOK 19/10 Q1019
16:50
V
20 °C 10 km+ - 170° 170° 4 kt METAR EDLN 041450Z 17004KT 120V240 CAVOK 20/11 Q1019
16:20
V
20 °C 10 km+ - 180° 180° 4 kt METAR EDLN 041420Z 18004KT 080V250 CAVOK 20/11 Q1019
15:50
V
19 °C 10 km+ - Var Var 4 kt METAR EDLN 041350Z VRB04KT CAVOK 19/10 Q1019
15:20
V
19 °C 10 km+ - 180° 180° 5 kt METAR EDLN 041320Z 18005KT 140V220 CAVOK 19/10 Q1020
14:50
V
19 °C 10 km+ - 170° 170° 4 kt METAR EDLN 041250Z 17004KT 100V220 CAVOK 19/09 Q1020
14:20
V
19 °C 10 km+ - 180° 180° 5 kt METAR EDLN 041220Z 18005KT 140V240 CAVOK 19/09 Q1020
13:50
V
18 °C 10 km+ - 160° 160° 4 kt METAR EDLN 041150Z 16004KT 110V250 CAVOK 18/10 Q1021
13:20
V
17 °C 10 km+ - 130° 130° 5 kt METAR EDLN 041120Z 13005KT 080V190 CAVOK 17/11 Q1021
12:50
V
16 °C 10 km+ - 140° 140° 5 kt METAR EDLN 041050Z 14005KT 110V180 CAVOK 16/11 Q1021
12:20
V
15 °C 10 km+ - 150° 150° 5 kt METAR EDLN 041020Z 15005KT 110V180 CAVOK 15/11 Q1021
11:50
V
15 °C 10 km+ - 150° 150° 3 kt METAR EDLN 040950Z 15003KT 100V210 CAVOK 15/11 Q1021
11:20
V
14 °C 10 km+ - 130° 130° 4 kt METAR EDLN 040920Z 13004KT 090V200 CAVOK 14/10 Q1022
10:50
V
13 °C 10 km+ - 150° 150° 4 kt METAR EDLN 040850Z 15004KT 110V210 CAVOK 13/10 Q1022
10:20
V
11 °C 10 km+ - 140° 140° 4 kt METAR EDLN 040820Z 14004KT 110V190 CAVOK 11/09 Q1022
09:50
V
10 °C 10 km+ - 140° 140° 3 kt METAR EDLN 040750Z 14003KT 100V180 CAVOK 10/09 Q1022
09:20
V
9 °C 10 km+ - Var Var 2 kt METAR EDLN 040720Z VRB02KT CAVOK 09/09 Q1022
08:50
V
9 °C 10 km+ - 140° 140° 2 kt METAR EDLN 040650Z 14002KT CAVOK 09/08 Q1022
08:20
V
8 °C 10 km+ - 110° 110° 4 kt METAR EDLN 040620Z 11004KT CAVOK 08/07 Q1022
07:50
V
7 °C 10 km+ - 130° 130° 3 kt METAR EDLN 040550Z 13003KT CAVOK 07/07 Q1021
07:20
V
8 °C 10 km+ - 140° 140° 3 kt METAR EDLN 040520Z AUTO 14003KT 9999 // SCT180/// 08/07 Q1022
06:50
V
8 °C 10 km+ 19.000 ft 120° 120° 4 kt METAR EDLN 040450Z AUTO 12004KT 9999 // FEW150/// BKN190/// 08/07 Q1022
06:20
V
8 °C 10 km+ - 110° 110° 4 kt METAR EDLN 040420Z AUTO 11004KT 9999 // FEW150/// SCT180/// 08/07 Q1022
05:50
V
9 °C 10 km+ - 150° 150° 3 kt METAR EDLN 040350Z AUTO 15003KT 080V180 9999 // SCT110/// SCT150/// 09/08 Q1022
05:20
V
8 °C 10 km+ 12.000 ft 110° 110° 4 kt METAR EDLN 040320Z AUTO 11004KT 9999 // BKN120/// BKN250/// 08/08 Q1022
04:50
V
8 °C 10 km+ 16.000 ft 100° 100° 3 kt METAR EDLN 040250Z AUTO 10003KT 9999 // FEW120/// OVC160/// 08/08 Q1022
04:20
V
8 °C 10 km+ 19.000 ft 130° 130° 2 kt METAR EDLN 040220Z AUTO 13002KT 9999 // FEW160/// BKN190/// 08/08 Q1023
03:50
V
8 °C 10 km+ 19.000 ft 120° 120° 1 kt METAR EDLN 040150Z AUTO 12001KT 9999 // SCT150/// BKN190/// 08/08 Q1023
03:20
V
9 °C 10 km+ 19.000 ft 120° 120° 3 kt METAR EDLN 040120Z AUTO 12003KT 9999 // OVC190/// 09/08 Q1023
02:50
V
8 °C 10 km+ 21.000 ft 110° 110° 2 kt METAR EDLN 040050Z AUTO 11002KT 9999 // FEW170/// BKN210/// 08/08 Q1023
02:20
V
8 °C 10 km+ 22.000 ft 080° 080° 2 kt METAR EDLN 040020Z AUTO 08002KT 9999 // SCT180/// BKN220/// 08/08 Q1024
01:50
V
9 °C 10 km+ 18.000 ft Var Var 2 kt METAR EDLN 032350Z AUTO VRB02KT 9999 // FEW140/// BKN180/// BKN240/// 09/08 Q1024
01:20
V
9 °C 10 km+ 23.000 ft 090° 090° 2 kt METAR EDLN 032320Z AUTO 09002KT 9999 // SCT170/// OVC230/// 09/08 Q1024
00:50
V
8 °C 8 km 23.000 ft 100° 100° 3 kt METAR EDLN 032250Z AUTO 10003KT 8000 // SCT170/// BKN230/// 08/08 Q1024
00:20
V
9 °C 10 km+ 17.000 ft Var Var 1 kt METAR EDLN 032220Z AUTO VRB01KT 9999 // OVC170/// 09/08 Q1025

3 de octubre de 2022

Hora Código Tiempo Temp. Visibilidad Cielo nuboso Viento METAR/SPECI
23:50
V
9 °C 10 km+ 18.000 ft Var Var 1 kt METAR EDLN 032150Z AUTO VRB01KT 9999 // OVC180/// 09/08 Q1025
23:20
L
9 °C 1,1 km 19.000 ft Var Var 1 kt METAR EDLN 032120Z AUTO VRB01KT 1100 R31/1800D // BKN190/// 09/08 Q1025
22:50
V
9 °C 10 km+ - 130° 130° 2 kt METAR EDLN 032050Z AUTO 13002KT 9999 // SCT190/// 09/08 Q1025
22:20
V
9 °C 10 km+ - 100° 100° 2 kt METAR EDLN 032020Z AUTO 10002KT 9999 // SCT200/// 09/09 Q1025
21:50
V
10 °C 10 km+ 20.000 ft Var Var 1 kt METAR EDLN 031950Z AUTO VRB01KT 9999 // BKN200/// 10/09 Q1025
21:20
V
10 °C 10 km+ 21.000 ft Var 000° 0 kt METAR EDLN 031920Z AUTO 00000KT 9999 // FEW180/// OVC210/// 10/10 Q1025
Datos más antiguos

Nosotros y terceros seguimos tu comportamiento en Internet en nuestro sitio web con cookies. Si continúas, asumimos que estás de acuerdo con nuestra política de cookies. Más información